sensor_id;sensor_type;location;lat;lon;timestamp;temperature;humidity
39021;DHT22;25188;51.958;5.842;2023-02-28T00:02:22;2.30;76.20
39021;DHT22;25188;51.958;5.842;2023-02-28T00:04:48;2.30;76.10
39021;DHT22;25188;51.958;5.842;2023-02-28T00:07:18;2.30;75.80
39021;DHT22;25188;51.958;5.842;2023-02-28T00:09:44;2.30;76.30
39021;DHT22;25188;51.958;5.842;2023-02-28T00:12:10;2.40;76.50
39021;DHT22;25188;51.958;5.842;2023-02-28T00:14:40;2.40;76.50
39021;DHT22;25188;51.958;5.842;2023-02-28T00:17:06;2.40;76.10
39021;DHT22;25188;51.958;5.842;2023-02-28T00:19:31;2.50;76.00
39021;DHT22;25188;51.958;5.842;2023-02-28T00:21:57;2.50;76.00
39021;DHT22;25188;51.958;5.842;2023-02-28T00:24:22;2.60;76.10
39021;DHT22;25188;51.958;5.842;2023-02-28T00:26:48;2.60;76.20
39021;DHT22;25188;51.958;5.842;2023-02-28T00:29:13;2.70;76.60
39021;DHT22;25188;51.958;5.842;2023-02-28T00:31:39;2.70;76.30
39021;DHT22;25188;51.958;5.842;2023-02-28T00:34:05;2.70;76.30
39021;DHT22;25188;51.958;5.842;2023-02-28T00:36:30;2.70;76.50
39021;DHT22;25188;51.958;5.842;2023-02-28T00:38:56;2.80;76.60
39021;DHT22;25188;51.958;5.842;2023-02-28T00:41:22;2.90;77.00
39021;DHT22;25188;51.958;5.842;2023-02-28T00:43:47;2.90;76.80
39021;DHT22;25188;51.958;5.842;2023-02-28T00:46:13;2.90;76.90
39021;DHT22;25188;51.958;5.842;2023-02-28T00:48:38;3.00;76.80
39021;DHT22;25188;51.958;5.842;2023-02-28T00:51:04;3.00;76.70
39021;DHT22;25188;51.958;5.842;2023-02-28T00:53:30;3.00;76.60
39021;DHT22;25188;51.958;5.842;2023-02-28T00:55:57;3.10;76.80
39021;DHT22;25188;51.958;5.842;2023-02-28T00:58:24;3.10;76.60
39021;DHT22;25188;51.958;5.842;2023-02-28T01:00:51;3.10;77.00
39021;DHT22;25188;51.958;5.842;2023-02-28T01:03:17;3.20;76.90
39021;DHT22;25188;51.958;5.842;2023-02-28T01:05:44;3.20;77.30
39021;DHT22;25188;51.958;5.842;2023-02-28T01:08:09;3.20;76.90
39021;DHT22;25188;51.958;5.842;2023-02-28T01:10:35;3.20;77.00
39021;DHT22;25188;51.958;5.842;2023-02-28T01:13:02;3.30;77.20
39021;DHT22;25188;51.958;5.842;2023-02-28T01:15:28;3.30;77.00
39021;DHT22;25188;51.958;5.842;2023-02-28T01:17:54;3.30;77.00
39021;DHT22;25188;51.958;5.842;2023-02-28T01:20:20;3.40;76.90
39021;DHT22;25188;51.958;5.842;2023-02-28T01:22:45;3.40;77.00
39021;DHT22;25188;51.958;5.842;2023-02-28T01:25:12;3.40;77.00
39021;DHT22;25188;51.958;5.842;2023-02-28T01:27:37;3.40;76.80
39021;DHT22;25188;51.958;5.842;2023-02-28T01:30:06;3.40;76.80
39021;DHT22;25188;51.958;5.842;2023-02-28T01:32:31;3.50;77.00
39021;DHT22;25188;51.958;5.842;2023-02-28T01:34:57;3.50;77.00
39021;DHT22;25188;51.958;5.842;2023-02-28T01:37:23;3.50;77.10
39021;DHT22;25188;51.958;5.842;2023-02-28T01:39:48;3.50;76.90
39021;DHT22;25188;51.958;5.842;2023-02-28T01:42:14;3.50;77.20
39021;DHT22;25188;51.958;5.842;2023-02-28T01:47:38;3.40;77.00
39021;DHT22;25188;51.958;5.842;2023-02-28T01:50:08;3.50;77.00
39021;DHT22;25188;51.958;5.842;2023-02-28T01:52:35;3.50;77.10
39021;DHT22;25188;51.958;5.842;2023-02-28T01:55:03;3.50;77.10
39021;DHT22;25188;51.958;5.842;2023-02-28T01:57:34;3.50;77.80
39021;DHT22;25188;51.958;5.842;2023-02-28T02:00:24;3.50;77.50
39021;DHT22;25188;51.958;5.842;2023-02-28T02:02:55;3.50;77.60
39021;DHT22;25188;51.958;5.842;2023-02-28T02:05:23;3.50;77.50
39021;DHT22;25188;51.958;5.842;2023-02-28T02:07:54;3.50;77.70
39021;DHT22;25188;51.958;5.842;2023-02-28T02:35:31;3.70;77.80
39021;DHT22;25188;51.958;5.842;2023-02-28T02:37:59;3.60;77.80
39021;DHT22;25188;51.958;5.842;2023-02-28T02:40:47;3.70;77.90
39021;DHT22;25188;51.958;5.842;2023-02-28T02:43:20;3.70;78.00
39021;DHT22;25188;51.958;5.842;2023-02-28T02:45:56;3.70;77.70
39021;DHT22;25188;51.958;5.842;2023-02-28T02:48:30;3.70;77.40
39021;DHT22;25188;51.958;5.842;2023-02-28T02:50:59;3.70;77.00
39021;DHT22;25188;51.958;5.842;2023-02-28T02:53:39;3.70;76.80
39021;DHT22;25188;51.958;5.842;2023-02-28T02:56:07;3.70;76.60
39021;DHT22;25188;51.958;5.842;2023-02-28T02:58:37;3.70;76.40
39021;DHT22;25188;51.958;5.842;2023-02-28T03:01:09;3.70;76.10
39021;DHT22;25188;51.958;5.842;2023-02-28T03:03:35;3.70;76.00
39021;DHT22;25188;51.958;5.842;2023-02-28T03:06:02;3.70;75.80
39021;DHT22;25188;51.958;5.842;2023-02-28T03:08:31;3.70;75.70
39021;DHT22;25188;51.958;5.842;2023-02-28T03:11:04;3.80;75.60
39021;DHT22;25188;51.958;5.842;2023-02-28T03:16:34;3.70;75.80
39021;DHT22;25188;51.958;5.842;2023-02-28T03:19:47;3.80;75.10
39021;DHT22;25188;51.958;5.842;2023-02-28T03:22:17;3.80;74.90
39021;DHT22;25188;51.958;5.842;2023-02-28T03:27:29;3.80;74.40
39021;DHT22;25188;51.958;5.842;2023-02-28T03:30:06;3.80;74.30
39021;DHT22;25188;51.958;5.842;2023-02-28T03:33:05;3.80;74.30
39021;DHT22;25188;51.958;5.842;2023-02-28T03:35:36;3.80;74.10
39021;DHT22;25188;51.958;5.842;2023-02-28T03:38:33;3.80;73.90
39021;DHT22;25188;51.958;5.842;2023-02-28T03:41:14;3.80;73.70
39021;DHT22;25188;51.958;5.842;2023-02-28T03:43:45;3.80;73.70
39021;DHT22;25188;51.958;5.842;2023-02-28T03:46:14;3.80;73.50
39021;DHT22;25188;51.958;5.842;2023-02-28T03:48:45;3.90;73.50
39021;DHT22;25188;51.958;5.842;2023-02-28T03:51:17;3.90;73.50
39021;DHT22;25188;51.958;5.842;2023-02-28T03:53:47;3.80;73.10
39021;DHT22;25188;51.958;5.842;2023-02-28T03:56:33;3.90;73.10
39021;DHT22;25188;51.958;5.842;2023-02-28T03:59:08;3.90;73.10
39021;DHT22;25188;51.958;5.842;2023-02-28T04:01:48;3.90;73.00
39021;DHT22;25188;51.958;5.842;2023-02-28T04:04:14;3.90;72.80
39021;DHT22;25188;51.958;5.842;2023-02-28T04:06:41;3.90;72.70
39021;DHT22;25188;51.958;5.842;2023-02-28T04:09:10;3.90;72.50
39021;DHT22;25188;51.958;5.842;2023-02-28T04:14:04;4.00;72.10
39021;DHT22;25188;51.958;5.842;2023-02-28T04:16:31;3.90;72.00
39021;DHT22;25188;51.958;5.842;2023-02-28T04:18:57;3.90;71.80
39021;DHT22;25188;51.958;5.842;2023-02-28T04:21:35;3.90;71.40
39021;DHT22;25188;51.958;5.842;2023-02-28T04:24:02;3.90;71.40
39021;DHT22;25188;51.958;5.842;2023-02-28T04:26:33;3.90;71.20
39021;DHT22;25188;51.958;5.842;2023-02-28T04:29:00;3.90;70.90
39021;DHT22;25188;51.958;5.842;2023-02-28T04:31:26;3.90;70.90
39021;DHT22;25188;51.958;5.842;2023-02-28T04:33:52;3.80;70.70
39021;DHT22;25188;51.958;5.842;2023-02-28T04:36:18;3.80;70.70
39021;DHT22;25188;51.958;5.842;2023-02-28T04:38:44;3.80;70.80
39021;DHT22;25188;51.958;5.842;2023-02-28T04:41:11;3.80;70.50
39021;DHT22;25188;51.958;5.842;2023-02-28T04:43:37;3.80;70.50
39021;DHT22;25188;51.958;5.842;2023-02-28T04:46:04;3.80;70.60
39021;DHT22;25188;51.958;5.842;2023-02-28T04:48:32;3.80;70.60
39021;DHT22;25188;51.958;5.842;2023-02-28T04:51:03;3.80;70.70
39021;DHT22;25188;51.958;5.842;2023-02-28T04:53:29;3.80;70.80
39021;DHT22;25188;51.958;5.842;2023-02-28T04:55:56;3.80;70.80
39021;DHT22;25188;51.958;5.842;2023-02-28T04:58:22;3.80;70.90
39021;DHT22;25188;51.958;5.842;2023-02-28T05:00:50;3.70;71.00
39021;DHT22;25188;51.958;5.842;2023-02-28T05:03:15;3.70;71.10
39021;DHT22;25188;51.958;5.842;2023-02-28T05:05:41;3.70;71.30
39021;DHT22;25188;51.958;5.842;2023-02-28T05:08:07;3.70;71.30
39021;DHT22;25188;51.958;5.842;2023-02-28T05:10:32;3.60;71.40
39021;DHT22;25188;51.958;5.842;2023-02-28T05:12:58;3.60;71.60
39021;DHT22;25188;51.958;5.842;2023-02-28T05:15:24;3.60;71.70
39021;DHT22;25188;51.958;5.842;2023-02-28T05:17:49;3.50;71.60
39021;DHT22;25188;51.958;5.842;2023-02-28T05:20:15;3.60;71.80
39021;DHT22;25188;51.958;5.842;2023-02-28T05:22:42;3.60;71.80
39021;DHT22;25188;51.958;5.842;2023-02-28T05:25:20;3.60;71.90
39021;DHT22;25188;51.958;5.842;2023-02-28T05:27:46;3.60;72.00
39021;DHT22;25188;51.958;5.842;2023-02-28T05:30:13;3.50;72.10
39021;DHT22;25188;51.958;5.842;2023-02-28T05:32:39;3.60;72.20
39021;DHT22;25188;51.958;5.842;2023-02-28T05:35:12;3.50;72.20
39021;DHT22;25188;51.958;5.842;2023-02-28T05:37:38;3.50;72.40
39021;DHT22;25188;51.958;5.842;2023-02-28T05:40:06;3.60;72.60
39021;DHT22;25188;51.958;5.842;2023-02-28T05:42:32;3.50;72.50
39021;DHT22;25188;51.958;5.842;2023-02-28T05:44:58;3.50;72.60
39021;DHT22;25188;51.958;5.842;2023-02-28T05:47:24;3.50;72.70
39021;DHT22;25188;51.958;5.842;2023-02-28T05:49:50;3.50;72.90
39021;DHT22;25188;51.958;5.842;2023-02-28T05:52:16;3.50;72.90
39021;DHT22;25188;51.958;5.842;2023-02-28T05:54:41;3.50;72.90
39021;DHT22;25188;51.958;5.842;2023-02-28T05:57:07;3.50;72.90
39021;DHT22;25188;51.958;5.842;2023-02-28T05:59:33;3.40;72.90
39021;DHT22;25188;51.958;5.842;2023-02-28T06:01:58;3.40;73.00
39021;DHT22;25188;51.958;5.842;2023-02-28T06:04:24;3.60;73.10
39021;DHT22;25188;51.958;5.842;2023-02-28T06:06:50;3.50;73.10
39021;DHT22;25188;51.958;5.842;2023-02-28T06:09:17;3.50;73.30
39021;DHT22;25188;51.958;5.842;2023-02-28T06:11:43;3.40;73.10
39021;DHT22;25188;51.958;5.842;2023-02-28T06:14:18;3.40;73.20
39021;DHT22;25188;51.958;5.842;2023-02-28T06:16:44;3.40;73.10
39021;DHT22;25188;51.958;5.842;2023-02-28T06:19:10;3.50;73.30
39021;DHT22;25188;51.958;5.842;2023-02-28T06:21:36;3.50;73.40
39021;DHT22;25188;51.958;5.842;2023-02-28T06:24:02;3.50;73.50
39021;DHT22;25188;51.958;5.842;2023-02-28T06:26:28;3.50;73.50
39021;DHT22;25188;51.958;5.842;2023-02-28T06:28:54;3.50;73.30
39021;DHT22;25188;51.958;5.842;2023-02-28T06:31:20;3.50;73.30
39021;DHT22;25188;51.958;5.842;2023-02-28T06:33:47;3.50;73.40
39021;DHT22;25188;51.958;5.842;2023-02-28T06:36:15;3.50;73.50
39021;DHT22;25188;51.958;5.842;2023-02-28T06:38:41;3.50;73.50
39021;DHT22;25188;51.958;5.842;2023-02-28T06:41:07;3.60;73.50
39021;DHT22;25188;51.958;5.842;2023-02-28T06:43:39;3.60;73.50
39021;DHT22;25188;51.958;5.842;2023-02-28T06:46:08;3.70;73.60
39021;DHT22;25188;51.958;5.842;2023-02-28T06:48:34;3.70;73.60
39021;DHT22;25188;51.958;5.842;2023-02-28T06:51:06;3.70;73.60
39021;DHT22;25188;51.958;5.842;2023-02-28T06:53:32;3.70;73.60
39021;DHT22;25188;51.958;5.842;2023-02-28T06:55:58;3.70;73.60
39021;DHT22;25188;51.958;5.842;2023-02-28T06:58:23;3.80;73.70
39021;DHT22;25188;51.958;5.842;2023-02-28T07:00:52;3.60;73.50
39021;DHT22;25188;51.958;5.842;2023-02-28T07:03:18;3.80;73.70
39021;DHT22;25188;51.958;5.842;2023-02-28T07:05:44;3.80;73.70
39021;DHT22;25188;51.958;5.842;2023-02-28T07:08:10;3.80;73.80
39021;DHT22;25188;51.958;5.842;2023-02-28T07:10:40;3.80;73.90
39021;DHT22;25188;51.958;5.842;2023-02-28T07:13:06;3.80;73.70
39021;DHT22;25188;51.958;5.842;2023-02-28T07:15:32;3.90;73.70
39021;DHT22;25188;51.958;5.842;2023-02-28T07:17:58;3.90;73.60
39021;DHT22;25188;51.958;5.842;2023-02-28T07:20:24;3.90;73.50
39021;DHT22;25188;51.958;5.842;2023-02-28T07:22:50;4.00;73.30
39021;DHT22;25188;51.958;5.842;2023-02-28T07:25:28;4.00;73.10
39021;DHT22;25188;51.958;5.842;2023-02-28T07:27:55;4.00;72.90
39021;DHT22;25188;51.958;5.842;2023-02-28T07:30:21;4.10;72.50
39021;DHT22;25188;51.958;5.842;2023-02-28T07:32:47;4.10;72.20
39021;DHT22;25188;51.958;5.842;2023-02-28T07:35:13;4.10;70.80
39021;DHT22;25188;51.958;5.842;2023-02-28T07:37:41;4.20;71.00
39021;DHT22;25188;51.958;5.842;2023-02-28T07:40:09;4.20;70.80
39021;DHT22;25188;51.958;5.842;2023-02-28T07:42:37;4.20;70.40
39021;DHT22;25188;51.958;5.842;2023-02-28T07:45:04;4.20;69.70
39021;DHT22;25188;51.958;5.842;2023-02-28T07:47:30;4.20;69.60
39021;DHT22;25188;51.958;5.842;2023-02-28T07:49:57;4.20;69.50
39021;DHT22;25188;51.958;5.842;2023-02-28T07:52:23;4.20;69.20
39021;DHT22;25188;51.958;5.842;2023-02-28T07:54:50;4.20;68.90
39021;DHT22;25188;51.958;5.842;2023-02-28T07:57:15;4.30;68.90
39021;DHT22;25188;51.958;5.842;2023-02-28T07:59:41;4.30;68.70
39021;DHT22;25188;51.958;5.842;2023-02-28T08:02:17;4.30;68.30
39021;DHT22;25188;51.958;5.842;2023-02-28T08:04:44;4.30;68.00
39021;DHT22;25188;51.958;5.842;2023-02-28T08:07:09;4.30;67.20
39021;DHT22;25188;51.958;5.842;2023-02-28T08:09:39;4.30;67.30
39021;DHT22;25188;51.958;5.842;2023-02-28T08:12:06;4.20;67.40
39021;DHT22;25188;51.958;5.842;2023-02-28T08:14:32;4.20;67.40
39021;DHT22;25188;51.958;5.842;2023-02-28T08:16:58;4.20;66.90
39021;DHT22;25188;51.958;5.842;2023-02-28T08:19:23;4.20;67.20
39021;DHT22;25188;51.958;5.842;2023-02-28T08:21:49;4.20;67.20
39021;DHT22;25188;51.958;5.842;2023-02-28T08:24:14;4.30;67.30
39021;DHT22;25188;51.958;5.842;2023-02-28T08:26:40;4.20;67.00
39021;DHT22;25188;51.958;5.842;2023-02-28T08:29:06;4.20;66.50
39021;DHT22;25188;51.958;5.842;2023-02-28T08:31:31;4.20;66.50
39021;DHT22;25188;51.958;5.842;2023-02-28T08:33:57;4.20;66.80
39021;DHT22;25188;51.958;5.842;2023-02-28T08:36:24;4.20;66.30
39021;DHT22;25188;51.958;5.842;2023-02-28T08:38:50;4.20;65.90
39021;DHT22;25188;51.958;5.842;2023-02-28T08:41:16;4.10;65.70
39021;DHT22;25188;51.958;5.842;2023-02-28T08:43:42;4.20;65.50
39021;DHT22;25188;51.958;5.842;2023-02-28T08:46:10;4.20;65.10
39021;DHT22;25188;51.958;5.842;2023-02-28T08:48:36;4.20;64.60
39021;DHT22;25188;51.958;5.842;2023-02-28T08:51:09;4.20;63.90
39021;DHT22;25188;51.958;5.842;2023-02-28T08:53:39;4.20;63.50
39021;DHT22;25188;51.958;5.842;2023-02-28T08:56:10;4.20;62.40
39021;DHT22;25188;51.958;5.842;2023-02-28T08:58:37;4.30;62.10
39021;DHT22;25188;51.958;5.842;2023-02-28T09:01:10;4.20;61.90
39021;DHT22;25188;51.958;5.842;2023-02-28T09:03:37;4.30;62.40
39021;DHT22;25188;51.958;5.842;2023-02-28T09:06:04;4.30;62.30
39021;DHT22;25188;51.958;5.842;2023-02-28T09:08:30;4.40;60.40
39021;DHT22;25188;51.958;5.842;2023-02-28T09:10:57;4.40;59.90
39021;DHT22;25188;51.958;5.842;2023-02-28T09:13:24;4.40;58.40
39021;DHT22;25188;51.958;5.842;2023-02-28T09:15:50;4.40;58.40
39021;DHT22;25188;51.958;5.842;2023-02-28T09:18:16;4.50;59.10
39021;DHT22;25188;51.958;5.842;2023-02-28T09:20:43;4.50;59.00
39021;DHT22;25188;51.958;5.842;2023-02-28T09:23:10;4.50;58.70
39021;DHT22;25188;51.958;5.842;2023-02-28T09:25:36;4.50;59.00
39021;DHT22;25188;51.958;5.842;2023-02-28T09:28:02;4.60;58.20
39021;DHT22;25188;51.958;5.842;2023-02-28T09:30:28;4.60;58.60
39021;DHT22;25188;51.958;5.842;2023-02-28T09:32:54;4.70;58.30
39021;DHT22;25188;51.958;5.842;2023-02-28T09:35:21;4.70;58.60
39021;DHT22;25188;51.958;5.842;2023-02-28T09:37:48;4.80;58.20
39021;DHT22;25188;51.958;5.842;2023-02-28T09:40:14;4.90;58.10
39021;DHT22;25188;51.958;5.842;2023-02-28T09:42:46;4.90;57.30
39021;DHT22;25188;51.958;5.842;2023-02-28T09:45:31;4.90;57.70
39021;DHT22;25188;51.958;5.842;2023-02-28T09:48:10;5.00;57.60
39021;DHT22;25188;51.958;5.842;2023-02-28T09:50:40;5.00;56.70
39021;DHT22;25188;51.958;5.842;2023-02-28T09:53:27;5.10;55.90
39021;DHT22;25188;51.958;5.842;2023-02-28T09:56:01;5.10;56.50
39021;DHT22;25188;51.958;5.842;2023-02-28T09:58:47;5.20;56.90
39021;DHT22;25188;51.958;5.842;2023-02-28T10:01:34;5.20;56.60
39021;DHT22;25188;51.958;5.842;2023-02-28T10:06:53;5.60;54.30
39021;DHT22;25188;51.958;5.842;2023-02-28T10:09:27;5.90;54.90
39021;DHT22;25188;51.958;5.842;2023-02-28T10:12:02;6.30;55.50
39021;DHT22;25188;51.958;5.842;2023-02-28T10:14:31;6.90;56.60
39021;DHT22;25188;51.958;5.842;2023-02-28T10:17:22;7.50;57.50
39021;DHT22;25188;51.958;5.842;2023-02-28T10:22:22;9.20;56.90
39021;DHT22;25188;51.958;5.842;2023-02-28T10:24:52;10.00;57.70
39021;DHT22;25188;51.958;5.842;2023-02-28T10:27:26;10.70;57.80
39021;DHT22;25188;51.958;5.842;2023-02-28T10:29:55;11.40;57.70
39021;DHT22;25188;51.958;5.842;2023-02-28T10:32:40;12.10;56.90
39021;DHT22;25188;51.958;5.842;2023-02-28T10:37:38;13.60;55.20
39021;DHT22;25188;51.958;5.842;2023-02-28T10:40:05;14.20;53.80
39021;DHT22;25188;51.958;5.842;2023-02-28T10:42:32;14.60;52.20
39021;DHT22;25188;51.958;5.842;2023-02-28T10:45:12;14.90;51.20
39021;DHT22;25188;51.958;5.842;2023-02-28T10:53:07;16.40;48.40
39021;DHT22;25188;51.958;5.842;2023-02-28T10:55:33;17.00;47.50
39021;DHT22;25188;51.958;5.842;2023-02-28T10:57:59;17.60;47.00
39021;DHT22;25188;51.958;5.842;2023-02-28T11:00:25;18.20;44.00
39021;DHT22;25188;51.958;5.842;2023-02-28T11:02:57;18.60;41.20
39021;DHT22;25188;51.958;5.842;2023-02-28T11:05:34;18.80;41.20
39021;DHT22;25188;51.958;5.842;2023-02-28T11:08:14;19.20;40.30
39021;DHT22;25188;51.958;5.842;2023-02-28T11:10:48;19.50;40.40
39021;DHT22;25188;51.958;5.842;2023-02-28T11:13:21;19.80;37.80
39021;DHT22;25188;51.958;5.842;2023-02-28T11:15:56;19.80;36.40
39021;DHT22;25188;51.958;5.842;2023-02-28T11:19:02;19.80;37.00
39021;DHT22;25188;51.958;5.842;2023-02-28T11:21:25;20.00;37.30
39021;DHT22;25188;51.958;5.842;2023-02-28T11:24:04;20.30;37.70
39021;DHT22;25188;51.958;5.842;2023-02-28T11:26:41;20.70;35.50
39021;DHT22;25188;51.958;5.842;2023-02-28T11:29:22;20.90;36.10
39021;DHT22;25188;51.958;5.842;2023-02-28T11:32:13;21.10;35.40
39021;DHT22;25188;51.958;5.842;2023-02-28T11:34:42;21.40;34.30
39021;DHT22;25188;51.958;5.842;2023-02-28T11:37:19;21.60;35.00
39021;DHT22;25188;51.958;5.842;2023-02-28T11:39:45;21.80;34.10
39021;DHT22;25188;51.958;5.842;2023-02-28T11:43:01;21.90;34.10
39021;DHT22;25188;51.958;5.842;2023-02-28T11:48:27;22.30;32.70
39021;DHT22;25188;51.958;5.842;2023-02-28T11:56:36;22.60;31.50
39021;DHT22;25188;51.958;5.842;2023-02-28T12:02:21;22.50;30.90
39021;DHT22;25188;51.958;5.842;2023-02-28T12:05:05;22.60;30.40
39021;DHT22;25188;51.958;5.842;2023-02-28T12:10:24;23.10;30.70
39021;DHT22;25188;51.958;5.842;2023-02-28T12:21:04;23.30;30.10
39021;DHT22;25188;51.958;5.842;2023-02-28T12:29:22;23.90;29.20
39021;DHT22;25188;51.958;5.842;2023-02-28T12:34:47;24.40;28.90
39021;DHT22;25188;51.958;5.842;2023-02-28T12:37:34;24.50;29.10
39021;DHT22;25188;51.958;5.842;2023-02-28T12:40:03;24.60;28.90
39021;DHT22;25188;51.958;5.842;2023-02-28T12:42:38;24.70;29.00
39021;DHT22;25188;51.958;5.842;2023-02-28T12:45:10;24.80;29.10
39021;DHT22;25188;51.958;5.842;2023-02-28T12:47:38;25.10;28.60
39021;DHT22;25188;51.958;5.842;2023-02-28T12:50:07;25.20;28.50
39021;DHT22;25188;51.958;5.842;2023-02-28T12:55:40;25.20;28.20
39021;DHT22;25188;51.958;5.842;2023-02-28T13:03:45;25.30;28.00
39021;DHT22;25188;51.958;5.842;2023-02-28T13:09:12;25.20;27.60
39021;DHT22;25188;51.958;5.842;2023-02-28T13:11:47;25.20;27.60
39021;DHT22;25188;51.958;5.842;2023-02-28T13:19:18;25.60;27.60
39021;DHT22;25188;51.958;5.842;2023-02-28T13:21:45;25.60;27.70
39021;DHT22;25188;51.958;5.842;2023-02-28T13:24:11;25.80;27.20
39021;DHT22;25188;51.958;5.842;2023-02-28T13:29:40;26.00;27.00
39021;DHT22;25188;51.958;5.842;2023-02-28T13:40:06;26.20;26.50
39021;DHT22;25188;51.958;5.842;2023-02-28T13:47:51;26.00;26.30
39021;DHT22;25188;51.958;5.842;2023-02-28T13:55:31;26.00;26.20
39021;DHT22;25188;51.958;5.842;2023-02-28T14:00:52;25.50;25.70
39021;DHT22;25188;51.958;5.842;2023-02-28T14:06:31;25.30;25.80
39021;DHT22;25188;51.958;5.842;2023-02-28T14:09:17;25.20;25.60
39021;DHT22;25188;51.958;5.842;2023-02-28T14:11:44;24.90;25.70
39021;DHT22;25188;51.958;5.842;2023-02-28T14:16:57;24.80;26.10
39021;DHT22;25188;51.958;5.842;2023-02-28T14:19:26;24.80;26.10
39021;DHT22;25188;51.958;5.842;2023-02-28T14:27:48;24.80;25.90
39021;DHT22;25188;51.958;5.842;2023-02-28T14:30:40;24.70;26.00
39021;DHT22;25188;51.958;5.842;2023-02-28T14:36:20;24.60;26.00
39021;DHT22;25188;51.958;5.842;2023-02-28T14:38:57;24.60;26.10
39021;DHT22;25188;51.958;5.842;2023-02-28T14:41:33;24.80;26.20
39021;DHT22;25188;51.958;5.842;2023-02-28T14:46:43;24.90;26.10
39021;DHT22;25188;51.958;5.842;2023-02-28T14:49:20;24.80;26.00
39021;DHT22;25188;51.958;5.842;2023-02-28T14:51:49;24.70;26.20
39021;DHT22;25188;51.958;5.842;2023-02-28T14:54:16;24.50;26.30
39021;DHT22;25188;51.958;5.842;2023-02-28T14:56:49;24.50;26.40
39021;DHT22;25188;51.958;5.842;2023-02-28T14:59:30;24.50;26.40
39021;DHT22;25188;51.958;5.842;2023-02-28T15:02:19;24.50;26.30
39021;DHT22;25188;51.958;5.842;2023-02-28T15:04:57;24.60;26.50
39021;DHT22;25188;51.958;5.842;2023-02-28T15:07:24;24.70;26.30
39021;DHT22;25188;51.958;5.842;2023-02-28T15:10:29;24.60;26.40
39021;DHT22;25188;51.958;5.842;2023-02-28T15:13:05;24.60;26.20
39021;DHT22;25188;51.958;5.842;2023-02-28T15:15:44;24.50;26.20
39021;DHT22;25188;51.958;5.842;2023-02-28T15:18:23;24.40;26.40
39021;DHT22;25188;51.958;5.842;2023-02-28T15:20:52;24.30;26.30
39021;DHT22;25188;51.958;5.842;2023-02-28T15:23:20;24.20;26.30
39021;DHT22;25188;51.958;5.842;2023-02-28T15:25:47;24.10;26.20
39021;DHT22;25188;51.958;5.842;2023-02-28T15:28:16;23.80;26.30
39021;DHT22;25188;51.958;5.842;2023-02-28T15:30:57;23.60;26.50
39021;DHT22;25188;51.958;5.842;2023-02-28T15:33:27;23.50;27.10
39021;DHT22;25188;51.958;5.842;2023-02-28T15:36:15;23.50;26.70
39021;DHT22;25188;51.958;5.842;2023-02-28T15:38:42;23.40;26.60
39021;DHT22;25188;51.958;5.842;2023-02-28T15:41:29;23.30;26.70
39021;DHT22;25188;51.958;5.842;2023-02-28T15:46:53;23.20;26.70
39021;DHT22;25188;51.958;5.842;2023-02-28T15:49:21;23.20;26.90
39021;DHT22;25188;51.958;5.842;2023-02-28T15:51:49;23.10;27.00
39021;DHT22;25188;51.958;5.842;2023-02-28T15:54:42;22.90;27.00
39021;DHT22;25188;51.958;5.842;2023-02-28T15:57:15;22.70;26.90
39021;DHT22;25188;51.958;5.842;2023-02-28T15:59:45;22.60;27.20
39021;DHT22;25188;51.958;5.842;2023-02-28T16:02:19;22.40;27.00
39021;DHT22;25188;51.958;5.842;2023-02-28T16:04:57;22.20;27.10
39021;DHT22;25188;51.958;5.842;2023-02-28T16:07:23;21.90;26.80
39021;DHT22;25188;51.958;5.842;2023-02-28T16:09:50;21.50;27.10
39021;DHT22;25188;51.958;5.842;2023-02-28T16:12:15;21.10;27.30
39021;DHT22;25188;51.958;5.842;2023-02-28T16:14:41;20.50;27.50
39021;DHT22;25188;51.958;5.842;2023-02-28T16:17:20;20.00;27.80
39021;DHT22;25188;51.958;5.842;2023-02-28T16:19:46;19.40;28.20
39021;DHT22;25188;51.958;5.842;2023-02-28T16:22:12;18.80;28.70
39021;DHT22;25188;51.958;5.842;2023-02-28T16:24:37;18.10;28.90
39021;DHT22;25188;51.958;5.842;2023-02-28T16:27:04;17.60;29.20
39021;DHT22;25188;51.958;5.842;2023-02-28T16:29:32;17.10;29.50
39021;DHT22;25188;51.958;5.842;2023-02-28T16:31:59;16.60;29.80
39021;DHT22;25188;51.958;5.842;2023-02-28T16:34:25;16.00;30.20
39021;DHT22;25188;51.958;5.842;2023-02-28T16:36:51;15.60;30.60
39021;DHT22;25188;51.958;5.842;2023-02-28T16:39:17;15.20;31.00
39021;DHT22;25188;51.958;5.842;2023-02-28T16:41:44;14.80;31.30
39021;DHT22;25188;51.958;5.842;2023-02-28T16:44:40;14.50;31.80
39021;DHT22;25188;51.958;5.842;2023-02-28T16:47:05;14.20;32.50
39021;DHT22;25188;51.958;5.842;2023-02-28T16:49:31;13.90;32.40
39021;DHT22;25188;51.958;5.842;2023-02-28T16:51:57;13.60;32.80
39021;DHT22;25188;51.958;5.842;2023-02-28T16:54:22;13.50;33.20
39021;DHT22;25188;51.958;5.842;2023-02-28T16:56:48;13.30;33.40
39021;DHT22;25188;51.958;5.842;2023-02-28T16:59:24;13.20;33.60
39021;DHT22;25188;51.958;5.842;2023-02-28T17:01:50;13.00;33.60
39021;DHT22;25188;51.958;5.842;2023-02-28T17:04:17;12.80;33.80
39021;DHT22;25188;51.958;5.842;2023-02-28T17:06:43;12.60;34.10
39021;DHT22;25188;51.958;5.842;2023-02-28T17:09:16;12.30;34.40
39021;DHT22;25188;51.958;5.842;2023-02-28T17:11:43;12.00;35.10
39021;DHT22;25188;51.958;5.842;2023-02-28T17:14:09;11.80;35.20
39021;DHT22;25188;51.958;5.842;2023-02-28T17:16:36;11.50;36.10
39021;DHT22;25188;51.958;5.842;2023-02-28T17:19:06;11.20;35.90
39021;DHT22;25188;51.958;5.842;2023-02-28T17:21:36;11.00;36.30
39021;DHT22;25188;51.958;5.842;2023-02-28T17:24:04;10.90;36.60
39021;DHT22;25188;51.958;5.842;2023-02-28T17:26:29;10.70;37.20
39021;DHT22;25188;51.958;5.842;2023-02-28T17:28:56;10.60;37.30
39021;DHT22;25188;51.958;5.842;2023-02-28T17:31:24;10.40;37.50
39021;DHT22;25188;51.958;5.842;2023-02-28T17:33:50;10.30;38.00
39021;DHT22;25188;51.958;5.842;2023-02-28T17:36:20;10.10;38.80
39021;DHT22;25188;51.958;5.842;2023-02-28T17:38:47;10.00;39.10
39021;DHT22;25188;51.958;5.842;2023-02-28T17:41:13;9.80;39.00
39021;DHT22;25188;51.958;5.842;2023-02-28T17:43:39;9.70;39.00
39021;DHT22;25188;51.958;5.842;2023-02-28T17:46:07;9.50;39.30
39021;DHT22;25188;51.958;5.842;2023-02-28T17:48:36;9.30;39.50
39021;DHT22;25188;51.958;5.842;2023-02-28T17:51:02;9.10;39.90
39021;DHT22;25188;51.958;5.842;2023-02-28T17:53:28;9.00;40.10
39021;DHT22;25188;51.958;5.842;2023-02-28T17:55:53;8.90;40.20
39021;DHT22;25188;51.958;5.842;2023-02-28T17:58:19;8.70;40.30
39021;DHT22;25188;51.958;5.842;2023-02-28T18:00:45;8.70;40.70
39021;DHT22;25188;51.958;5.842;2023-02-28T18:03:12;8.60;41.50
39021;DHT22;25188;51.958;5.842;2023-02-28T18:05:38;8.60;41.30
39021;DHT22;25188;51.958;5.842;2023-02-28T18:08:04;8.50;41.70
39021;DHT22;25188;51.958;5.842;2023-02-28T18:10:30;8.40;42.10
39021;DHT22;25188;51.958;5.842;2023-02-28T18:12:58;8.20;42.10
39021;DHT22;25188;51.958;5.842;2023-02-28T18:15:24;8.10;42.10
39021;DHT22;25188;51.958;5.842;2023-02-28T18:17:50;8.00;42.30
39021;DHT22;25188;51.958;5.842;2023-02-28T18:20:16;7.90;42.60